Time;durP1;ratioP1;P1;durP2;ratioP2;P2;SDS_P1;SDS_P2;PMS_P1;PMS_P2;Temp;Humidity;BMP_temperature;BMP_pressure;BME280_temperature;BME280_humidity;BME280_pressure;Samples;Min_cycle;Max_cycle;Signal;HPM_P1;HPM_P2
2021/04/28 00:00:42;;;;;;;11.60;4.50;;;12.40;42.90;;;;;;5048700;28;20122;-74
2021/04/28 00:03:10;;;;;;;7.63;4.15;;;12.40;42.50;;;;;;5042441;28;20037;-74
2021/04/28 00:05:37;;;;;;;13.00;4.18;;;12.40;42.20;;;;;;5050111;28;20404;-74
2021/04/28 00:08:05;;;;;;;11.48;4.00;;;12.30;42.00;;;;;;5048486;28;20099;-75
2021/04/28 00:10:35;;;;;;;9.65;4.30;;;12.30;41.60;;;;;;5060411;28;20630;-74
2021/04/28 00:13:02;;;;;;;6.38;3.75;;;12.40;40.60;;;;;;5044982;28;20102;-74
2021/04/28 00:15:31;;;;;;;9.77;4.88;;;12.40;40.60;;;;;;5064156;28;20056;-74
2021/04/28 00:18:00;;;;;;;5.57;3.38;;;12.40;40.90;;;;;;5043381;28;20107;-74
2021/04/28 00:20:27;;;;;;;9.18;3.58;;;12.20;40.90;;;;;;5050027;28;20131;-74
2021/04/28 00:22:54;;;;;;;6.28;3.72;;;12.10;41.10;;;;;;5038841;28;20045;-74
2021/04/28 00:25:31;;;;;;;5.93;3.72;;;12.30;41.10;;;;;;5049793;28;20418;-74
2021/04/28 00:27:58;;;;;;;7.40;3.47;;;12.10;41.10;;;;;;5048499;28;20045;-74
2021/04/28 00:30:25;;;;;;;8.50;3.92;;;12.10;41.40;;;;;;5048181;28;20083;-75
2021/04/28 00:32:52;;;;;;;8.85;3.88;;;12.00;41.40;;;;;;5063635;28;20098;-74
2021/04/28 00:35:20;;;;;;;6.25;3.67;;;11.90;41.70;;;;;;5047872;28;20041;-74
2021/04/28 00:37:47;;;;;;;7.22;3.47;;;11.90;41.90;;;;;;5056115;28;20132;-74
2021/04/28 00:40:17;;;;;;;6.07;3.13;;;11.80;42.20;;;;;;5049494;28;20126;-74
2021/04/28 00:42:45;;;;;;;8.57;3.22;;;11.80;41.90;;;;;;5046733;28;20530;-74
2021/04/28 00:45:13;;;;;;;10.63;3.65;;;11.80;42.10;;;;;;5041003;28;20118;-74
2021/04/28 00:47:40;;;;;;;3.72;3.03;;;11.70;42.10;;;;;;5059769;28;20072;-74
2021/04/28 00:50:09;;;;;;;7.45;3.10;;;11.70;42.50;;;;;;5048080;28;20130;-74
2021/04/28 00:52:35;;;;;;;7.20;3.60;;;11.60;42.50;;;;;;5049374;28;20075;-74
2021/04/28 00:55:04;;;;;;;5.82;3.65;;;11.50;42.80;;;;;;5044957;28;20567;-74
2021/04/28 00:57:31;;;;;;;12.88;3.45;;;11.30;43.00;;;;;;5047802;28;20136;-74
2021/04/28 00:59:58;;;;;;;4.93;3.40;;;11.40;43.50;;;;;;5049378;28;20484;-74
2021/04/28 01:02:24;;;;;;;18.45;3.90;;;11.40;43.40;;;;;;5047716;28;20748;-74
2021/04/28 01:04:51;;;;;;;5.60;3.47;;;11.50;43.70;;;;;;5048191;28;20057;-74
2021/04/28 01:07:19;;;;;;;6.80;3.50;;;11.40;43.70;;;;;;5046334;28;20052;-73
2021/04/28 01:09:46;;;;;;;8.63;3.90;;;11.40;44.00;;;;;;5046671;28;20045;-73
2021/04/28 01:12:13;;;;;;;6.95;3.67;;;11.40;44.30;;;;;;5041038;28;20447;-73
2021/04/28 01:14:40;;;;;;;8.27;3.78;;;11.30;44.20;;;;;;5043015;28;20481;-73
2021/04/28 01:17:06;;;;;;;9.18;3.58;;;11.20;44.50;;;;;;5064009;28;20135;-74
2021/04/28 01:19:40;;;;;;;7.15;3.67;;;11.40;44.30;;;;;;5036606;28;20052;-74
2021/04/28 01:22:06;;;;;;;9.38;3.78;;;11.50;44.60;;;;;;5048361;28;20059;-73
2021/04/28 01:24:33;;;;;;;6.32;3.40;;;11.50;44.50;;;;;;5047600;28;20072;-73
2021/04/28 01:27:04;;;;;;;7.82;4.15;;;11.30;45.00;;;;;;5047934;28;20107;-73
2021/04/28 01:29:31;;;;;;;10.75;3.72;;;11.40;45.00;;;;;;5036576;28;20049;-73
2021/04/28 01:32:00;;;;;;;10.40;4.13;;;11.30;45.00;;;;;;5060139;28;20131;-74
2021/04/28 01:34:30;;;;;;;6.67;3.80;;;11.30;45.00;;;;;;5049519;28;20051;-74
2021/04/28 01:36:57;;;;;;;9.73;3.80;;;11.20;46.20;;;;;;5045451;28;20123;-74
2021/04/28 01:39:25;;;;;;;8.80;3.90;;;11.10;46.00;;;;;;5048101;28;20045;-73
2021/04/28 01:41:52;;;;;;;8.90;3.67;;;11.10;46.00;;;;;;5047683;28;20052;-74
2021/04/28 01:44:27;;;;;;;7.95;3.92;;;11.10;46.50;;;;;;5047962;28;20077;-75
2021/04/28 01:46:54;;;;;;;6.70;3.70;;;11.10;46.50;;;;;;5046346;28;20491;-74
2021/04/28 01:49:24;;;;;;;12.70;4.75;;;11.00;46.70;;;;;;5048087;28;20060;-74
2021/04/28 01:51:54;;;;;;;8.75;4.30;;;11.00;46.70;;;;;;5040818;28;20103;-74
2021/04/28 01:54:22;;;;;;;13.18;5.28;;;11.00;47.10;;;;;;5061833;28;20139;-74
2021/04/28 01:56:50;;;;;;;14.32;4.68;;;11.00;46.50;;;;;;5048335;28;20049;-74
2021/04/28 01:59:21;;;;;;;8.85;5.07;;;11.00;46.50;;;;;;5049740;28;20558;-74
2021/04/28 02:01:51;;;;;;;5.95;4.15;;;11.00;46.60;;;;;;5043743;28;20076;-74
2021/04/28 02:04:18;;;;;;;;;;;11.00;46.80;;;;;;5061790;28;20099;-74
2021/04/28 02:06:45;;;;;;;9.02;5.10;;;11.00;46.70;;;;;;5049408;28;20797;-74
2021/04/28 02:09:11;;;;;;;10.20;4.88;;;11.00;46.80;;;;;;5045073;28;20045;-74
2021/04/28 02:11:38;;;;;;;8.18;5.22;;;11.00;46.90;;;;;;5044117;28;20106;-74
2021/04/28 02:14:05;;;;;;;8.38;4.90;;;10.80;47.00;;;;;;5047207;28;20056;-74
2021/04/28 02:16:37;;;;;;;9.02;4.65;;;10.80;47.30;;;;;;5045893;28;20081;-74
2021/04/28 02:19:06;;;;;;;12.20;5.03;;;10.80;47.70;;;;;;5042323;28;20468;-74
2021/04/28 02:21:33;;;;;;;9.52;4.95;;;10.70;47.80;;;;;;5047706;28;20172;-74
2021/04/28 02:24:00;;;;;;;6.90;4.20;;;10.70;48.00;;;;;;5038597;28;20068;-73
2021/04/28 02:26:27;;;;;;;12.25;4.72;;;10.60;48.10;;;;;;5049108;28;20098;-73
2021/04/28 02:28:53;;;;;;;9.75;4.70;;;10.60;48.20;;;;;;5043839;28;20123;-74
2021/04/28 02:31:20;;;;;;;6.88;4.10;;;10.60;48.20;;;;;;5049650;28;20095;-73
2021/04/28 02:33:46;;;;;;;8.90;4.90;;;10.60;48.20;;;;;;5050545;28;20141;-74
2021/04/28 02:36:14;;;;;;;11.27;4.85;;;10.60;48.10;;;;;;5049091;28;20129;-73
2021/04/28 02:38:54;;;;;;;11.63;4.90;;;10.50;48.50;;;;;;5047346;28;20096;-74
2021/04/28 02:41:22;;;;;;;9.52;5.07;;;10.30;48.80;;;;;;5044069;28;20095;-74
2021/04/28 02:43:50;;;;;;;7.57;4.95;;;10.40;48.60;;;;;;5044621;28;20564;-74
2021/04/28 02:46:18;;;;;;;11.52;4.78;;;10.30;48.70;;;;;;5042537;28;20505;-74
2021/04/28 02:48:47;;;;;;;8.27;5.00;;;10.20;49.00;;;;;;5046977;28;20052;-74
2021/04/28 02:51:14;;;;;;;8.88;4.65;;;10.30;49.30;;;;;;5050563;28;20131;-74
2021/04/28 02:53:45;;;;;;;11.70;4.78;;;10.40;49.30;;;;;;5049883;28;20080;-74
2021/04/28 02:56:16;;;;;;;7.85;4.78;;;10.30;49.00;;;;;;5049835;28;20080;-74
2021/04/28 02:58:43;;;;;;;10.50;5.10;;;10.30;48.90;;;;;;5051345;28;20052;-74
2021/04/28 03:01:10;;;;;;;7.18;4.30;;;10.30;49.20;;;;;;5049734;28;20171;-73
2021/04/28 03:03:40;;;;;;;9.90;5.00;;;10.30;49.20;;;;;;5048360;28;20463;-74
2021/04/28 03:06:09;;;;;;;11.82;4.57;;;10.10;48.80;;;;;;5048637;28;20492;-74
2021/04/28 03:08:37;;;;;;;8.57;4.38;;;10.10;49.40;;;;;;5049654;28;20052;-74
2021/04/28 03:11:04;;;;;;;8.10;4.38;;;10.20;49.30;;;;;;5049039;28;20049;-74
2021/04/28 03:13:31;;;;;;;11.82;4.88;;;10.10;49.20;;;;;;5052029;28;20052;-74
2021/04/28 03:15:58;;;;;;;7.93;4.50;;;10.10;49.20;;;;;;5050091;28;20462;-74
2021/04/28 03:18:24;;;;;;;8.05;4.63;;;10.00;49.20;;;;;;5040246;28;20052;-75
2021/04/28 03:20:53;;;;;;;7.55;4.43;;;10.00;49.60;;;;;;5051424;28;20065;-75
2021/04/28 03:23:21;;;;;;;7.82;5.63;;;10.10;49.80;;;;;;5046087;28;20052;-74
2021/04/28 03:25:47;;;;;;;13.75;6.05;;;10.20;50.00;;;;;;5064489;28;20094;-74
2021/04/28 03:28:13;;;;;;;8.60;4.82;;;10.20;49.80;;;;;;5049029;28;20048;-74
2021/04/28 03:30:40;;;;;;;13.32;5.43;;;10.20;49.80;;;;;;5047314;28;20075;-74
2021/04/28 03:33:06;;;;;;;13.25;4.72;;;10.20;49.80;;;;;;5043564;28;20044;-74
2021/04/28 03:35:34;;;;;;;10.25;5.35;;;10.20;50.00;;;;;;5048683;28;20497;-74
2021/04/28 03:38:00;;;;;;;11.13;5.40;;;10.10;49.90;;;;;;5044163;28;20559;-74
2021/04/28 03:40:26;;;;;;;10.15;5.10;;;10.20;49.90;;;;;;5051662;28;20045;-74
2021/04/28 03:42:53;;;;;;;13.48;5.65;;;10.20;49.70;;;;;;5048916;28;20529;-74
2021/04/28 03:45:19;;;;;;;9.55;5.53;;;10.10;49.70;;;;;;5046732;28;20053;-74
2021/04/28 03:47:45;;;;;;;12.55;6.13;;;10.00;49.90;;;;;;5047119;28;20094;-74
2021/04/28 03:50:12;;;;;;;9.85;5.32;;;9.90;51.20;;;;;;5050037;28;20044;-74
2021/04/28 03:52:40;;;;;;;13.93;5.88;;;9.90;51.20;;;;;;5045789;28;20652;-74
2021/04/28 03:55:08;;;;;;;11.20;6.05;;;9.90;50.80;;;;;;5050793;28;20053;-74
2021/04/28 03:57:35;;;;;;;9.35;5.20;;;9.90;51.00;;;;;;5051294;28;20128;-74
2021/04/28 04:00:07;;;;;;;9.85;5.25;;;9.90;50.90;;;;;;5051770;28;20095;-75
2021/04/28 04:02:33;;;;;;;11.60;5.55;;;9.80;50.90;;;;;;5042532;28;20049;-73
2021/04/28 04:05:00;;;;;;;9.25;5.10;;;9.70;50.80;;;;;;5049808;28;20037;-74
2021/04/28 04:07:27;;;;;;;8.70;5.40;;;9.70;50.70;;;;;;5047610;28;20132;-74
2021/04/28 04:09:53;;;;;;;9.77;5.38;;;9.70;51.10;;;;;;5051867;28;20044;-74
2021/04/28 04:12:20;;;;;;;14.27;5.50;;;9.80;51.00;;;;;;5047375;28;20405;-74
2021/04/28 04:14:46;;;;;;;8.90;4.95;;;9.80;50.80;;;;;;5043788;28;20052;-74
2021/04/28 04:17:13;;;;;;;11.93;5.47;;;9.80;50.90;;;;;;5050782;28;20151;-74
2021/04/28 04:19:39;;;;;;;10.43;5.20;;;9.80;50.90;;;;;;5045878;28;20056;-75
2021/04/28 04:22:05;;;;;;;8.60;5.10;;;9.80;51.00;;;;;;5044682;28;20098;-74
2021/04/28 04:24:32;;;;;;;11.57;5.63;;;9.80;50.90;;;;;;5047373;28;20071;-73
2021/04/28 04:26:59;;;;;;;11.38;5.50;;;9.80;51.10;;;;;;5047903;28;20133;-75
2021/04/28 04:29:25;;;;;;;13.15;5.30;;;9.80;51.20;;;;;;5047506;28;20053;-75
2021/04/28 04:31:52;;;;;;;11.75;5.72;;;9.80;50.90;;;;;;5051334;28;20106;-73
2021/04/28 04:34:18;;;;;;;8.52;5.50;;;9.90;51.00;;;;;;5049745;28;20041;-74
2021/04/28 04:36:44;;;;;;;8.50;5.03;;;9.90;51.00;;;;;;5048450;28;20107;-74
2021/04/28 04:39:11;;;;;;;12.00;5.85;;;9.80;50.90;;;;;;5048943;28;20048;-74
2021/04/28 04:41:37;;;;;;;10.48;5.32;;;9.70;50.90;;;;;;5048999;28;20385;-74
2021/04/28 04:44:03;;;;;;;8.10;4.80;;;9.80;51.00;;;;;;5047892;28;20068;-73
2021/04/28 04:46:31;;;;;;;9.65;4.90;;;9.80;51.20;;;;;;5038239;28;20084;-74
2021/04/28 04:48:57;;;;;;;8.70;5.00;;;9.70;51.30;;;;;;5047716;28;20073;-75
2021/04/28 04:51:24;;;;;;;10.40;5.53;;;9.70;51.50;;;;;;5049934;28;20045;-74
2021/04/28 04:53:50;;;;;;;11.18;5.70;;;9.70;51.40;;;;;;5054203;28;20104;-75
2021/04/28 04:56:16;;;;;;;14.77;5.60;;;9.70;51.50;;;;;;5047314;28;20048;-74
2021/04/28 04:58:43;;;;;;;11.05;5.07;;;9.80;51.50;;;;;;5053557;28;20553;-74
2021/04/28 05:01:09;;;;;;;12.27;5.57;;;9.80;51.50;;;;;;5048671;28;20092;-74
2021/04/28 05:03:35;;;;;;;10.55;5.55;;;9.90;51.40;;;;;;5047096;28;20073;-74
2021/04/28 05:06:02;;;;;;;13.05;6.10;;;10.00;50.40;;;;;;5048495;28;20076;-74
2021/04/28 05:08:28;;;;;;;13.85;5.70;;;10.00;50.50;;;;;;5046333;28;20088;-75
2021/04/28 05:10:55;;;;;;;13.23;5.80;;;10.00;50.50;;;;;;5049616;28;20468;-73
2021/04/28 05:13:21;;;;;;;11.35;5.13;;;10.10;50.60;;;;;;5047593;28;20053;-74
2021/04/28 05:15:47;;;;;;;9.38;6.05;;;10.00;50.40;;;;;;5048179;28;20088;-73
2021/04/28 05:18:14;;;;;;;10.75;6.28;;;10.00;50.70;;;;;;5046287;28;20049;-74
2021/04/28 05:20:42;;;;;;;10.43;6.05;;;10.10;50.60;;;;;;5046610;28;20523;-74
2021/04/28 05:23:08;;;;;;;12.45;6.68;;;10.20;50.50;;;;;;5043643;28;20037;-74
2021/04/28 05:25:34;;;;;;;12.45;5.88;;;10.20;50.40;;;;;;5048968;28;20098;-73
2021/04/28 05:28:01;;;;;;;12.63;5.57;;;10.20;50.20;;;;;;5048644;28;20072;-74
2021/04/28 05:30:28;;;;;;;9.88;5.97;;;10.30;50.50;;;;;;5042733;28;20053;-73
2021/04/28 05:32:54;;;;;;;11.88;5.60;;;10.30;50.40;;;;;;5047360;28;20069;-73
2021/04/28 05:35:21;;;;;;;15.27;6.25;;;10.40;50.30;;;;;;5048622;28;20139;-75
2021/04/28 05:37:48;;;;;;;15.68;6.43;;;10.50;50.20;;;;;;5043827;28;20049;-74
2021/04/28 05:40:15;;;;;;;17.98;6.03;;;10.50;50.20;;;;;;5046854;28;20048;-75
2021/04/28 05:42:42;;;;;;;11.70;5.30;;;10.60;50.10;;;;;;5046784;28;21478;-73
2021/04/28 05:45:11;;;;;;;19.52;6.20;;;10.70;50.00;;;;;;5048966;28;20224;-74
2021/04/28 05:47:38;;;;;;;13.70;5.65;;;10.90;49.30;;;;;;5043768;28;20049;-74
2021/04/28 05:50:07;;;;;;;15.55;5.75;;;11.10;49.20;;;;;;5049295;28;20045;-73
2021/04/28 05:52:34;;;;;;;15.70;6.53;;;11.50;48.50;;;;;;5042141;28;20053;-74
2021/04/28 05:55:00;;;;;;;15.35;6.30;;;11.50;48.10;;;;;;5047235;28;20099;-74
2021/04/28 05:57:33;;;;;;;12.88;5.70;;;11.50;48.30;;;;;;5045756;28;20037;-75
2021/04/28 06:00:02;;;;;;;9.90;5.70;;;11.70;47.90;;;;;;5047949;28;20053;-75
2021/04/28 06:02:28;;;;;;;13.13;6.53;;;11.80;47.70;;;;;;5051396;28;20091;-74
2021/04/28 06:04:55;;;;;;;14.00;6.15;;;11.80;47.50;;;;;;5051265;28;20473;-73
2021/04/28 06:07:21;;;;;;;17.80;6.70;;;12.20;47.50;;;;;;5047944;28;20038;-73
2021/04/28 06:09:47;;;;;;;20.98;7.15;;;12.80;46.90;;;;;;5050236;28;20068;-73
2021/04/28 06:12:14;;;;;;;23.98;6.72;;;12.90;46.40;;;;;;5052970;28;20091;-72
2021/04/28 06:14:40;;;;;;;11.13;6.10;;;13.10;46.10;;;;;;5052444;28;20482;-75
2021/04/28 06:17:06;;;;;;;11.13;6.88;;;13.50;45.90;;;;;;5049343;28;20049;-74
2021/04/28 06:19:34;;;;;;;13.93;6.13;;;13.30;45.60;;;;;;5042174;28;20449;-74
2021/04/28 06:22:05;;;;;;;14.65;7.47;;;13.00;45.40;;;;;;5048855;28;20048;-72
2021/04/28 06:24:39;;;;;;;16.02;6.93;;;12.70;46.60;;;;;;5050075;28;20048;-74
2021/04/28 06:27:07;;;;;;;12.60;6.10;;;13.00;46.70;;;;;;5051335;28;20635;-74
2021/04/28 06:29:36;;;;;;;17.20;6.38;;;13.20;45.70;;;;;;5048948;28;20072;-73
2021/04/28 06:32:03;;;;;;;20.27;6.72;;;12.90;46.20;;;;;;5061562;28;20045;-74
2021/04/28 06:34:30;;;;;;;17.33;6.63;;;12.80;46.10;;;;;;5050694;28;20053;-74
2021/04/28 06:36:57;;;;;;;13.13;7.07;;;12.60;45.90;;;;;;5048453;28;20654;-73
2021/04/28 06:39:23;;;;;;;17.98;7.30;;;12.60;46.00;;;;;;5048530;28;20068;-72
2021/04/28 06:41:49;;;;;;;17.52;7.95;;;12.80;45.80;;;;;;5049903;28;20124;-75
2021/04/28 06:44:16;;;;;;;16.52;7.78;;;13.20;45.80;;;;;;5049972;28;20053;-73
2021/04/28 06:46:42;;;;;;;17.77;7.78;;;13.00;45.60;;;;;;5048610;28;20056;-73
2021/04/28 06:49:11;;;;;;;19.63;7.55;;;12.90;46.70;;;;;;5051726;28;20090;-75
2021/04/28 06:51:38;;;;;;;16.52;7.65;;;12.90;46.60;;;;;;5051393;28;20040;-74
2021/04/28 06:54:05;;;;;;;14.88;7.97;;;12.90;47.00;;;;;;5052327;28;20094;-75
2021/04/28 06:56:32;;;;;;;13.50;7.80;;;12.70;47.20;;;;;;5051148;28;20124;-74
2021/04/28 06:58:58;;;;;;;20.83;9.25;;;12.70;47.60;;;;;;5050280;28;20084;-73
2021/04/28 07:01:27;;;;;;;19.10;9.05;;;12.80;47.60;;;;;;5048449;28;20045;-74
2021/04/28 07:03:56;;;;;;;18.98;9.63;;;13.00;47.10;;;;;;5050402;28;20049;-74
2021/04/28 07:06:25;;;;;;;31.63;9.93;;;13.50;46.60;;;;;;5051622;28;20077;-73
2021/04/28 07:08:52;;;;;;;19.23;10.07;;;14.00;45.60;;;;;;5045998;28;20139;-72
2021/04/28 07:11:21;;;;;;;26.00;9.13;;;13.90;45.40;;;;;;5038854;28;20076;-74
2021/04/28 07:13:48;;;;;;;25.58;9.18;;;14.10;44.60;;;;;;5038673;28;20041;-73
2021/04/28 07:16:14;;;;;;;21.65;8.95;;;14.90;44.10;;;;;;5045220;28;20061;-73
2021/04/28 07:18:41;;;;;;;20.38;9.05;;;15.30;43.00;;;;;;5043865;28;20061;-73
2021/04/28 07:21:07;;;;;;;24.45;9.70;;;15.00;42.80;;;;;;5043096;28;21402;-74
2021/04/28 07:23:33;;;;;;;26.58;10.38;;;15.00;43.40;;;;;;5042908;28;20569;-74
2021/04/28 07:26:00;;;;;;;21.33;10.55;;;14.80;43.00;;;;;;5045214;28;20084;-74
2021/04/28 07:28:27;;;;;;;17.95;9.02;;;14.40;43.30;;;;;;5044292;28;20466;-73
2021/04/28 07:30:53;;;;;;;21.33;8.25;;;14.60;42.80;;;;;;5043584;28;20144;-73
2021/04/28 07:33:20;;;;;;;17.33;8.50;;;14.30;42.30;;;;;;5043592;28;20139;-74
2021/04/28 07:35:47;;;;;;;14.70;7.00;;;15.30;42.40;;;;;;5043127;28;20098;-75
2021/04/28 07:38:15;;;;;;;16.75;7.78;;;15.40;40.20;;;;;;5029861;28;20110;-75
2021/04/28 07:40:42;;;;;;;15.32;8.20;;;14.60;40.80;;;;;;5030641;28;20059;-75
2021/04/28 07:43:08;;;;;;;16.23;8.55;;;14.20;41.80;;;;;;5030787;28;20145;-75
2021/04/28 07:45:35;;;;;;;25.90;8.68;;;14.40;42.30;;;;;;5033771;28;20116;-74
2021/04/28 07:48:07;;;;;;;20.95;8.77;;;14.30;42.10;;;;;;5032757;28;20056;-73
2021/04/28 07:50:38;;;;;;;22.20;8.77;;;14.30;42.10;;;;;;5032179;28;20059;-74
2021/04/28 07:53:05;;;;;;;14.43;8.43;;;14.30;42.10;;;;;;5030013;28;20076;-74
2021/04/28 07:55:36;;;;;;;17.75;8.75;;;14.20;42.20;;;;;;5031828;28;20586;-75
2021/04/28 07:58:04;;;;;;;21.50;8.23;;;14.50;42.20;;;;;;5030655;28;20046;-73
2021/04/28 08:00:34;;;;;;;16.23;8.75;;;14.90;42.10;;;;;;5019420;28;20222;-73
2021/04/28 08:03:06;;;;;;;20.33;8.55;;;15.00;41.50;;;;;;5034882;28;20044;-74
2021/04/28 08:05:33;;;;;;;29.05;9.57;;;15.20;41.60;;;;;;5030951;28;20103;-74
2021/04/28 08:08:03;;;;;;;22.83;8.38;;;15.10;41.30;;;;;;5030695;28;20063;-74
2021/04/28 08:10:29;;;;;;;16.20;8.80;;;15.20;41.00;;;;;;5032874;28;20634;-74
2021/04/28 08:12:56;;;;;;;15.55;9.05;;;15.10;41.00;;;;;;5032814;28;20048;-72
2021/04/28 08:15:23;;;;;;;16.05;9.43;;;15.50;41.20;;;;;;5035707;28;20178;-73
2021/04/28 08:17:49;;;;;;;20.27;9.02;;;15.50;40.60;;;;;;5032080;28;20127;-78
2021/04/28 08:20:16;;;;;;;26.05;9.20;;;15.90;40.50;;;;;;5033848;28;20415;-74
2021/04/28 08:22:44;;;;;;;14.77;8.48;;;15.80;40.10;;;;;;5031115;28;20050;-75
2021/04/28 08:25:13;;;;;;;21.48;9.27;;;15.50;41.00;;;;;;5032144;28;20106;-74
2021/04/28 08:27:40;;;;;;;18.20;8.60;;;16.30;40.30;;;;;;5035281;28;20111;-74
2021/04/28 08:30:10;;;;;;;15.93;8.30;;;17.00;40.00;;;;;;5031319;28;20159;-74
2021/04/28 08:32:37;;;;;;;;;;;16.60;39.50;;;;;;5032529;28;20114;-75
2021/04/28 08:35:08;;;;;;;13.50;8.25;;;16.20;41.00;;;;;;5031876;28;19986;-74
2021/04/28 08:37:38;;;;;;;16.58;8.73;;;15.60;41.90;;;;;;5031746;28;20044;-75
2021/04/28 08:40:08;;;;;;;20.88;8.93;;;16.00;41.50;;;;;;5031996;28;20101;-75
2021/04/28 08:42:37;;;;;;;21.15;9.27;;;15.70;41.30;;;;;;5030876;28;20052;-74
2021/04/28 08:45:05;;;;;;;25.30;10.00;;;15.70;41.30;;;;;;5031279;28;20064;-74
2021/04/28 08:47:32;;;;;;;19.00;9.38;;;15.90;41.80;;;;;;5035352;28;20057;-75
2021/04/28 08:49:58;;;;;;;24.45;9.65;;;16.10;41.20;;;;;;5032055;28;20144;-75
2021/04/28 08:52:25;;;;;;;22.02;8.68;;;16.20;41.20;;;;;;5032804;28;20059;-75
2021/04/28 08:54:52;;;;;;;21.50;8.73;;;16.50;41.50;;;;;;5030252;28;20413;-76
2021/04/28 08:57:19;;;;;;;25.13;9.00;;;16.70;41.40;;;;;;5032788;28;20131;-75
2021/04/28 08:59:49;;;;;;;25.80;8.55;;;17.50;40.00;;;;;;5030151;28;20811;-76
2021/04/28 09:02:24;;;;;;;20.48;8.98;;;17.40;40.30;;;;;;5030504;28;21364;-75
2021/04/28 09:05:10;;;;;;;18.70;9.02;;;17.00;40.00;;;;;;5030287;28;20122;-75
2021/04/28 09:07:43;;;;;;;18.85;8.85;;;16.70;40.70;;;;;;5031621;28;21400;-75
2021/04/28 09:10:11;;;;;;;26.10;9.82;;;16.80;40.10;;;;;;5050269;28;20072;-73
2021/04/28 09:12:38;;;;;;;17.40;8.57;;;17.10;39.90;;;;;;5031127;28;20052;-75
2021/04/28 09:15:08;;;;;;;21.63;10.18;;;16.90;40.00;;;;;;5031303;28;20208;-76
2021/04/28 09:17:54;;;;;;;16.70;9.07;;;17.00;40.30;;;;;;5032527;28;20060;-75
2021/04/28 09:23:34;;;;;;;21.95;9.48;;;16.90;39.80;;;;;;5020119;28;20134;-76
2021/04/28 09:26:14;;;;;;;22.25;10.07;;;17.10;40.70;;;;;;5028160;28;20056;-76
2021/04/28 09:28:53;;;;;;;21.92;9.95;;;17.50;40.10;;;;;;5032716;28;20052;-76
2021/04/28 09:31:19;;;;;;;24.63;8.80;;;17.20;40.60;;;;;;5043407;28;20107;-75
2021/04/28 09:33:56;;;;;;;16.63;9.63;;;17.40;39.80;;;;;;5031524;28;20053;-76
2021/04/28 09:36:31;;;;;;;18.75;9.73;;;17.40;40.50;;;;;;5029510;28;20110;-75
2021/04/28 09:39:06;;;;;;;18.58;9.05;;;17.90;39.60;;;;;;5031810;28;20683;-76
2021/04/28 09:41:42;;;;;;;21.50;9.60;;;18.70;38.90;;;;;;5029161;28;20064;-75
2021/04/28 09:44:31;;;;;;;22.77;9.32;;;19.10;37.80;;;;;;5029033;28;20053;-79
2021/04/28 09:47:08;;;;;;;17.20;9.50;;;20.00;36.90;;;;;;5031382;28;20045;-74
2021/04/28 09:49:48;;;;;;;22.75;9.40;;;19.50;36.10;;;;;;5031331;28;20126;-74
2021/04/28 09:52:17;;;;;;;19.27;9.80;;;18.70;36.60;;;;;;5029484;28;20052;-75
2021/04/28 09:54:48;;;;;;;19.13;9.63;;;18.50;37.30;;;;;;5031476;28;20068;-75
2021/04/28 09:57:18;;;;;;;17.42;9.80;;;19.00;37.60;;;;;;5029638;28;20067;-75
2021/04/28 09:59:52;;;;;;;18.48;10.35;;;18.90;37.90;;;;;;5030350;28;20092;-75
2021/04/28 10:02:29;;;;;;;16.05;9.40;;;18.40;37.00;;;;;;5031091;28;20055;-74
2021/04/28 10:05:22;;;;;;;20.48;10.15;;;18.30;38.10;;;;;;5030460;28;20422;-75
2021/04/28 10:08:20;;;;;;;19.25;9.75;;;18.00;37.70;;;;;;5052064;28;20041;-77
2021/04/28 10:10:48;;;;;;;22.35;9.98;;;18.00;38.30;;;;;;5029462;28;20049;-78
2021/04/28 10:13:15;;;;;;;20.45;10.52;;;18.10;38.10;;;;;;5031064;28;20507;-76
2021/04/28 10:15:45;;;;;;;20.23;9.48;;;18.00;37.80;;;;;;5030854;28;20485;-76
2021/04/28 10:18:15;;;;;;;17.92;9.52;;;19.20;37.80;;;;;;5031108;28;20045;-78
2021/04/28 10:20:43;;;;;;;19.45;10.35;;;19.80;35.80;;;;;;5029885;28;20080;-78
2021/04/28 10:23:13;;;;;;;18.27;9.15;;;20.50;35.70;;;;;;5029723;28;20061;-74
2021/04/28 10:25:41;;;;;;;17.33;9.70;;;22.60;33.10;;;;;;5029975;28;20114;-75
2021/04/28 10:28:14;;;;;;;22.83;10.02;;;22.50;32.70;;;;;;5032718;28;20136;-77
2021/04/28 10:30:44;;;;;;;21.70;10.02;;;22.40;33.40;;;;;;5031360;28;20501;-78
2021/04/28 10:33:23;;;;;;;17.85;10.15;;;22.30;33.90;;;;;;5030358;28;20099;-77
2021/04/28 10:35:51;;;;;;;25.13;10.43;;;22.40;32.20;;;;;;5030020;28;20088;-75
2021/04/28 10:38:29;;;;;;;20.42;10.23;;;21.10;35.10;;;;;;5036401;28;20103;-78
2021/04/28 10:40:56;;;;;;;23.63;9.68;;;20.70;35.20;;;;;;5040570;28;20937;-77
2021/04/28 10:43:37;;;;;;;20.65;10.65;;;21.70;33.40;;;;;;5041889;28;20073;-76
2021/04/28 10:46:17;;;;;;;17.73;9.15;;;22.00;33.20;;;;;;5040936;28;20091;-78
2021/04/28 10:49:17;;;;;;;;;;;21.50;33.90;;;;;;5046015;28;20052;-77
2021/04/28 10:51:46;;;;;;;30.60;10.43;;;23.70;32.70;;;;;;5046731;28;19929;-75
2021/04/28 10:54:30;;;;;;;22.90;9.70;;;23.20;31.90;;;;;;5045593;28;20428;-74
2021/04/28 10:57:07;;;;;;;18.40;9.32;;;23.10;31.90;;;;;;5045470;28;20061;-74
2021/04/28 10:59:41;;;;;;;19.00;10.17;;;24.10;31.70;;;;;;5046121;28;20049;-74
2021/04/28 11:02:10;;;;;;;25.70;8.95;;;24.10;30.90;;;;;;5044561;28;20115;-75
2021/04/28 11:04:37;;;;;;;17.88;9.32;;;23.10;31.40;;;;;;5045563;28;20561;-74
2021/04/28 11:07:04;;;;;;;17.55;9.32;;;22.20;31.70;;;;;;5045958;28;20049;-77
2021/04/28 11:09:34;;;;;;;17.48;10.50;;;22.20;32.70;;;;;;5042145;28;20045;-74
2021/04/28 11:12:01;;;;;;;20.05;9.88;;;21.90;32.70;;;;;;5044895;28;20057;-75
2021/04/28 11:14:31;;;;;;;20.85;9.52;;;21.10;33.40;;;;;;5043929;28;20053;-75
2021/04/28 11:17:18;;;;;;;17.80;9.30;;;20.70;34.10;;;;;;5044658;28;20071;-78
2021/04/28 11:19:51;;;;;;;18.83;9.13;;;20.30;34.40;;;;;;5045333;28;20131;-76
2021/04/28 11:22:30;;;;;;;16.30;9.65;;;20.20;33.90;;;;;;5043318;28;20151;-77
2021/04/28 11:25:18;;;;;;;18.83;9.48;;;20.10;34.40;;;;;;5041805;28;20076;-75
2021/04/28 11:27:50;;;;;;;17.05;8.52;;;21.10;34.00;;;;;;5043178;28;20053;-76
2021/04/28 11:30:42;;;;;;;16.20;8.45;;;21.30;30.70;;;;;;5043932;28;20675;-77
2021/04/28 11:33:22;;;;;;;19.70;8.63;;;21.30;30.90;;;;;;5040289;28;20095;-76
2021/04/28 11:35:54;;;;;;;15.93;8.53;;;20.60;31.20;;;;;;5043713;28;20145;-76
2021/04/28 11:38:29;;;;;;;13.38;8.23;;;20.60;31.60;;;;;;5035750;28;20306;-76
2021/04/28 11:41:02;;;;;;;21.17;8.88;;;20.70;30.00;;;;;;5041729;28;20081;-75
2021/04/28 11:43:31;;;;;;;16.08;7.82;;;20.70;29.90;;;;;;5040669;28;20092;-75
2021/04/28 11:46:16;;;;;;;15.23;7.93;;;22.40;30.50;;;;;;5043907;28;20059;-75
2021/04/28 11:48:51;;;;;;;12.80;7.30;;;23.40;27.60;;;;;;5039749;28;20523;-76
2021/04/28 11:51:32;;;;;;;11.40;7.20;;;22.30;27.40;;;;;;5037470;28;20049;-75
2021/04/28 11:54:01;;;;;;;11.05;6.85;;;22.20;29.30;;;;;;5035209;28;20881;-75
2021/04/28 11:56:41;;;;;;;13.57;7.65;;;23.90;28.50;;;;;;5038295;28;20087;-75
2021/04/28 11:59:21;;;;;;;17.38;9.80;;;24.90;27.40;;;;;;5039150;28;20570;-75
2021/04/28 12:01:54;;;;;;;10.80;6.53;;;25.70;27.00;;;;;;5036378;28;20067;-74
2021/04/28 12:04:32;;;;;;;11.80;7.00;;;27.70;26.10;;;;;;5037573;28;20049;-74
2021/04/28 12:06:59;;;;;;;11.13;6.30;;;28.10;25.10;;;;;;5034236;28;20057;-76
2021/04/28 12:09:37;;;;;;;13.63;6.55;;;26.70;25.30;;;;;;5037757;28;20053;-74
2021/04/28 12:12:13;;;;;;;12.13;6.20;;;26.60;25.70;;;;;;5034439;28;20874;-75
2021/04/28 12:14:48;;;;;;;14.05;7.05;;;26.00;26.80;;;;;;5038372;28;20072;-76
2021/04/28 12:17:18;;;;;;;13.48;6.80;;;25.90;27.00;;;;;;5021780;28;20056;-75
2021/04/28 12:19:48;;;;;;;11.25;7.60;;;24.90;27.80;;;;;;5037493;28;20053;-75
2021/04/28 12:22:15;;;;;;;16.67;7.53;;;24.60;26.80;;;;;;5038643;28;20056;-73
2021/04/28 12:24:51;;;;;;;17.73;9.35;;;26.70;27.10;;;;;;5035556;28;20079;-74
2021/04/28 12:27:31;;;;;;;31.52;11.20;;;26.40;26.60;;;;;;5039699;28;20143;-74
2021/04/28 12:30:00;;;;;;;12.77;7.32;;;28.50;26.10;;;;;;5037668;28;20752;-75
2021/04/28 12:32:28;;;;;;;62.20;10.55;;;27.10;24.90;;;;;;5055415;28;20056;-74
2021/04/28 12:35:17;;;;;;;16.42;9.70;;;28.50;25.90;;;;;;5043124;28;20113;-72
2021/04/28 12:38:17;;;;;;;16.58;9.35;;;29.50;25.80;;;;;;5041696;28;20056;-74
2021/04/28 12:40:48;;;;;;;11.30;7.00;;;30.30;25.20;;;;;;5032903;28;20213;-74
2021/04/28 12:43:43;;;;;;;11.70;6.63;;;29.10;23.90;;;;;;5036149;28;20049;-74
2021/04/28 12:46:13;;;;;;;14.85;8.15;;;28.40;23.70;;;;;;5028597;28;20049;-74
2021/04/28 12:49:00;;;;;;;14.38;9.40;;;29.20;24.20;;;;;;5041774;28;20076;-74
2021/04/28 12:51:28;;;;;;;10.77;7.18;;;29.10;24.20;;;;;;5042154;28;20142;-74
2021/04/28 12:53:55;;;;;;;13.05;7.18;;;28.40;24.30;;;;;;5041584;28;20578;-74
2021/04/28 12:56:22;;;;;;;14.57;8.07;;;27.70;24.60;;;;;;5040243;28;20708;-74